KDNV/DNV METAR and TAF weather

Enter ICAO airport designator
Station Type Date Time Source
KDNV METAR 2019/09/21 21:15 UTC NOAA

KDNV 212115Z AUTO 19013G19KT 10SM BKN090 30/17 A3008 RMK AO2 T02950171


Station Type Date Time Source
KDNV Decoded METAR 2019/09/21 21:15 UTC NOAA

Danville, Vermilion County Airport, IL, United States (KDNV) 40-11-58N 087-35-44W
Sep 21, 2019 - 05:15 PM EDT / 2019.09.21 2115 UTC
Wind: from the S (190 degrees) at 15 MPH (13 KT) gusting to 22 MPH (19 KT):0
Visibility: 10 mile(s):0
Sky conditions: mostly cloudy
Temperature: 85.1 F (29.5 C)
Dew Point: 62.8 F (17.1 C)
Relative Humidity: 47%
Pressure (altimeter): 30.08 in. Hg (1018 hPa)
ob: KDNV 212115Z AUTO 19013G19KT 10SM BKN090 30/17 A3008 RMK AO2 T02950171
cycle: 21

Station Type Date Time Source
KDNV TAF UTC NOAA

Error!

Example: see airport list